createdAt,value
2018-05-29T00:02:15.035Z,20.57
2018-05-29T00:04:41.006Z,20.57
2018-05-29T00:07:06.964Z,20.58
2018-05-29T00:09:32.893Z,20.51
2018-05-29T00:11:58.875Z,20.56
2018-05-29T00:25:10.402Z,20.57
2018-05-29T00:27:36.331Z,20.45
2018-05-29T00:30:02.312Z,20.11
2018-05-29T00:32:28.270Z,19.83
2018-05-29T00:34:54.265Z,19.55
2018-05-29T00:37:20.199Z,19.59
2018-05-29T00:39:46.228Z,19.59
2018-05-29T00:42:12.164Z,19.67
2018-05-29T00:44:38.121Z,19.78
2018-05-29T00:47:04.049Z,19.83
2018-05-29T00:49:30.000Z,19.87
2018-05-29T00:51:55.951Z,19.88
2018-05-29T00:54:21.865Z,19.87
2018-05-29T00:56:47.786Z,19.89
2018-05-29T00:59:13.754Z,19.94
2018-05-29T01:01:39.703Z,19.91
2018-05-29T01:04:05.731Z,19.78
2018-05-29T01:06:31.722Z,19.67
2018-05-29T01:08:57.732Z,19.65
2018-05-29T01:11:23.678Z,19.72
2018-05-29T01:13:49.646Z,19.60
2018-05-29T01:16:15.613Z,19.52
2018-05-29T01:18:41.573Z,19.55
2018-05-29T01:21:07.516Z,19.63
2018-05-29T01:23:33.424Z,19.68
2018-05-29T01:25:59.369Z,19.76
2018-05-29T01:28:25.337Z,19.78
2018-05-29T01:30:51.291Z,19.79
2018-05-29T01:33:17.269Z,19.93
2018-05-29T01:35:43.256Z,19.98
2018-05-29T01:38:09.188Z,19.91
2018-05-29T01:40:35.167Z,19.77
2018-05-29T01:43:01.097Z,19.71
2018-05-29T01:45:27.060Z,19.64
2018-05-29T01:47:53.020Z,19.65
2018-05-29T01:50:19.013Z,19.68
2018-05-29T01:52:45.100Z,19.70
2018-05-29T01:55:10.992Z,19.63
2018-05-29T02:00:02.838Z,19.29
2018-05-29T02:02:28.817Z,19.07
2018-05-29T02:04:54.763Z,19.07
2018-05-29T02:07:20.710Z,18.93
2018-05-29T02:09:46.645Z,18.78
2018-05-29T02:12:12.612Z,18.77
2018-05-29T02:14:38.567Z,18.79
2018-05-29T02:17:04.473Z,18.72
2018-05-29T02:19:30.434Z,18.69
2018-05-29T02:21:56.454Z,18.81
2018-05-29T02:24:22.373Z,18.91
2018-05-29T02:26:48.330Z,18.95
2018-05-29T02:29:14.261Z,18.94
2018-05-29T02:31:40.215Z,18.95
2018-05-29T02:34:06.244Z,18.88
2018-05-29T02:36:32.190Z,18.96
2018-05-29T02:38:58.215Z,18.98
2018-05-29T02:41:24.144Z,18.96
2018-05-29T02:43:50.766Z,18.91
2018-05-29T02:46:16.708Z,18.92
2018-05-29T02:51:35.062Z,19.00
2018-05-29T02:54:01.121Z,19.05
2018-05-29T02:56:27.104Z,18.93
2018-05-29T02:58:53.064Z,18.89
2018-05-29T03:01:18.995Z,18.86
2018-05-29T03:03:44.995Z,18.94
2018-05-29T03:06:10.918Z,19.03
2018-05-29T03:08:36.861Z,19.00
2018-05-29T03:11:02.807Z,19.08
2018-05-29T03:13:28.753Z,19.09
2018-05-29T03:15:54.733Z,19.12
2018-05-29T03:18:20.705Z,19.15
2018-05-29T03:20:46.686Z,19.14
2018-05-29T03:23:12.623Z,19.20
2018-05-29T03:25:38.549Z,19.25
2018-05-29T03:28:04.520Z,19.24
2018-05-29T03:30:30.466Z,19.03
2018-05-29T03:32:56.457Z,18.62
2018-05-29T03:35:22.420Z,18.43
2018-05-29T03:37:48.379Z,18.40
2018-05-29T03:40:14.373Z,18.29
2018-05-29T03:42:40.348Z,18.38
2018-05-29T03:45:06.326Z,18.53
2018-05-29T03:47:32.253Z,18.60
2018-05-29T03:49:58.212Z,18.65
2018-05-29T03:52:24.150Z,18.82
2018-05-29T03:54:50.066Z,18.88
2018-05-29T03:57:15.986Z,18.90
2018-05-29T03:59:41.965Z,18.96
2018-05-29T04:02:07.896Z,18.90
2018-05-29T04:04:33.819Z,18.94
2018-05-29T04:06:59.792Z,18.80
2018-05-29T04:09:25.770Z,18.55
2018-05-29T04:11:51.673Z,18.41
2018-05-29T04:14:17.624Z,18.28
2018-05-29T04:16:43.708Z,18.13
2018-05-29T04:19:09.687Z,18.10
2018-05-29T04:21:35.610Z,18.05
2018-05-29T04:24:01.552Z,18.26
2018-05-29T04:26:27.519Z,18.46
2018-05-29T04:28:53.518Z,18.59
2018-05-29T04:31:19.422Z,18.69
2018-05-29T04:33:45.384Z,18.78
2018-05-29T04:36:11.307Z,18.61
2018-05-29T04:38:37.295Z,18.52
2018-05-29T04:41:03.208Z,18.40
2018-05-29T04:43:29.171Z,18.49
2018-05-29T04:45:55.146Z,18.66
2018-05-29T04:48:21.073Z,18.85
2018-05-29T04:50:46.995Z,18.98
2018-05-29T04:53:12.900Z,19.11
2018-05-29T04:55:38.824Z,19.16
2018-05-29T04:58:04.764Z,19.20
2018-05-29T05:00:30.729Z,19.28
2018-05-29T05:02:56.691Z,19.41
2018-05-29T05:05:22.677Z,19.51
2018-05-29T05:07:48.655Z,19.54
2018-05-29T05:10:14.610Z,19.71
2018-05-29T05:12:40.603Z,19.80
2018-05-29T05:15:06.560Z,19.96
2018-05-29T05:17:32.514Z,19.95
2018-05-29T05:19:58.456Z,20.00
2018-05-29T05:22:24.429Z,20.01
2018-05-29T05:24:50.378Z,20.07
2018-05-29T05:27:16.313Z,20.26
2018-05-29T05:29:42.248Z,20.47
2018-05-29T05:32:08.208Z,20.62
2018-05-29T05:34:34.170Z,20.68
2018-05-29T05:37:00.081Z,20.68
2018-05-29T05:39:26.078Z,20.77
2018-05-29T05:41:52.020Z,20.87
2018-05-29T05:44:17.941Z,21.05
2018-05-29T05:46:43.965Z,21.18
2018-05-29T05:49:09.936Z,21.25
2018-05-29T05:51:35.918Z,21.27
2018-05-29T05:54:01.874Z,21.52
2018-05-29T05:56:27.817Z,21.65
2018-05-29T05:58:53.728Z,21.81
2018-05-29T06:01:19.670Z,21.99
2018-05-29T06:03:45.580Z,22.19
2018-05-29T06:06:11.510Z,22.18
2018-05-29T06:08:37.450Z,22.27
2018-05-29T06:11:03.412Z,22.47
2018-05-29T06:13:29.320Z,22.63
2018-05-29T06:15:55.202Z,22.64
2018-05-29T06:18:21.126Z,22.66
2018-05-29T06:20:47.035Z,22.81
2018-05-29T06:23:12.951Z,22.81
2018-05-29T06:25:38.868Z,22.88
2018-05-29T06:28:04.814Z,22.95
2018-05-29T06:30:30.785Z,23.04
2018-05-29T06:32:56.740Z,23.14
2018-05-29T06:35:22.668Z,23.33
2018-05-29T06:37:48.653Z,23.53
2018-05-29T06:40:14.582Z,23.50
2018-05-29T06:42:40.584Z,23.54
2018-05-29T06:45:06.585Z,23.59
2018-05-29T06:47:32.457Z,23.51
2018-05-29T06:49:58.417Z,23.47
2018-05-29T06:52:24.358Z,23.42
2018-05-29T06:54:50.286Z,23.61
2018-05-29T06:57:16.228Z,23.52
2018-05-29T06:59:42.179Z,23.58
2018-05-29T07:02:08.139Z,23.53
2018-05-29T07:04:34.045Z,23.61
2018-05-29T07:07:00.020Z,23.54
2018-05-29T07:09:28.941Z,23.48
2018-05-29T07:11:54.911Z,23.54
2018-05-29T07:14:20.829Z,23.76
2018-05-29T07:16:46.795Z,24.00
2018-05-29T07:30:05.978Z,24.19
2018-05-29T07:32:31.928Z,24.26
2018-05-29T07:34:57.877Z,24.41
2018-05-29T07:37:23.836Z,24.51
2018-05-29T07:39:49.753Z,24.40
2018-05-29T07:42:15.667Z,24.41
2018-05-29T07:44:41.607Z,24.54
2018-05-29T07:47:07.578Z,24.57
2018-05-29T07:49:33.530Z,24.51
2018-05-29T07:51:59.454Z,24.55
2018-05-29T07:54:25.380Z,24.50
2018-05-29T07:56:51.333Z,24.39
2018-05-29T07:59:17.284Z,24.24
2018-05-29T08:01:43.247Z,24.29
2018-05-29T08:04:09.178Z,24.20
2018-05-29T08:06:35.140Z,24.12
2018-05-29T08:09:01.090Z,24.21
2018-05-29T08:11:27.044Z,24.35
2018-05-29T08:13:52.969Z,24.26
2018-05-29T08:16:18.914Z,24.34
2018-05-29T08:18:44.876Z,24.46
2018-05-29T08:21:10.836Z,24.52
2018-05-29T08:23:36.835Z,24.55
2018-05-29T08:26:02.774Z,24.42
2018-05-29T08:28:28.731Z,24.26
2018-05-29T08:30:54.675Z,24.25
2018-05-29T08:33:20.656Z,24.37
2018-05-29T08:35:46.647Z,24.52
2018-05-29T08:38:12.591Z,24.51
2018-05-29T08:40:38.503Z,24.48
2018-05-29T08:43:04.432Z,24.62
2018-05-29T08:45:30.402Z,24.51
2018-05-29T08:47:56.339Z,24.45
2018-05-29T08:50:22.307Z,24.61
2018-05-29T08:52:48.263Z,25.05
2018-05-29T08:55:14.257Z,25.35
2018-05-29T08:57:40.146Z,25.46
2018-05-29T09:00:06.153Z,25.92
2018-05-29T09:02:32.138Z,26.26
2018-05-29T09:04:58.119Z,26.51
2018-05-29T09:07:24.077Z,26.51
2018-05-29T09:09:50.049Z,26.77
2018-05-29T09:12:16.033Z,26.94
2018-05-29T09:14:43.022Z,26.92
2018-05-29T09:29:04.351Z,27.83
2018-05-29T09:31:30.318Z,27.93
2018-05-29T09:33:56.279Z,27.43
2018-05-29T09:36:22.234Z,26.70
2018-05-29T09:38:48.203Z,26.46
2018-05-29T09:41:14.131Z,26.55
2018-05-29T09:43:40.138Z,26.47
2018-05-29T09:46:06.048Z,27.12
2018-05-29T09:48:32.048Z,27.77
2018-05-29T09:50:58.001Z,28.07
2018-05-29T09:53:23.920Z,28.49
2018-05-29T09:55:49.882Z,28.48
2018-05-29T09:58:15.839Z,28.51
2018-05-29T10:00:41.839Z,28.59
2018-05-29T10:03:07.788Z,28.68
2018-05-29T10:05:33.943Z,29.00
2018-05-29T10:07:59.885Z,29.12
2018-05-29T10:10:25.834Z,29.45
2018-05-29T10:12:51.781Z,29.06
2018-05-29T10:15:17.760Z,29.60
2018-05-29T10:17:43.687Z,29.55
2018-05-29T10:20:09.635Z,29.50
2018-05-29T10:22:35.603Z,29.56
2018-05-29T10:25:01.546Z,29.25
2018-05-29T10:27:27.463Z,28.98
2018-05-29T10:29:53.441Z,28.80
2018-05-29T10:32:19.362Z,28.89
2018-05-29T10:34:45.290Z,29.35
2018-05-29T10:37:11.233Z,29.18
2018-05-29T10:39:37.193Z,29.54
2018-05-29T10:42:03.161Z,29.46
2018-05-29T10:44:29.113Z,29.27
2018-05-29T10:46:55.083Z,29.35
2018-05-29T10:49:21.010Z,29.07
2018-05-29T10:51:47.049Z,28.70
2018-05-29T10:54:12.982Z,28.57
2018-05-29T10:56:38.964Z,28.01
2018-05-29T10:59:04.921Z,27.99
2018-05-29T11:01:30.944Z,28.22
2018-05-29T11:03:56.927Z,28.01
2018-05-29T11:06:22.904Z,27.98
2018-05-29T11:08:48.921Z,27.64
2018-05-29T11:11:14.847Z,27.57
2018-05-29T11:13:40.778Z,27.51
2018-05-29T11:16:06.741Z,27.41
2018-05-29T11:18:32.631Z,27.25
2018-05-29T11:20:58.571Z,27.32
2018-05-29T11:23:24.547Z,27.38
2018-05-29T11:25:50.477Z,27.68
2018-05-29T11:28:16.408Z,27.70
2018-05-29T11:30:42.342Z,27.81
2018-05-29T11:33:08.276Z,27.81
2018-05-29T11:35:34.212Z,27.79
2018-05-29T11:38:00.205Z,28.08
2018-05-29T11:40:26.193Z,28.08
2018-05-29T11:42:52.091Z,27.87
2018-05-29T11:45:18.039Z,27.91
2018-05-29T11:47:43.981Z,28.43
2018-05-29T11:50:09.944Z,28.77
2018-05-29T11:52:35.925Z,28.89
2018-05-29T11:55:01.869Z,28.61
2018-05-29T11:57:27.810Z,28.34
2018-05-29T11:59:53.770Z,28.09
2018-05-29T12:02:19.796Z,27.76
2018-05-29T12:04:45.763Z,27.57
2018-05-29T12:07:11.746Z,27.64
2018-05-29T12:09:37.707Z,27.50
2018-05-29T12:12:16.243Z,27.27
2018-05-29T12:14:43.402Z,26.77
2018-05-29T12:17:09.511Z,26.63
2018-05-29T12:19:35.526Z,26.34
2018-05-29T12:22:01.441Z,26.38
2018-05-29T12:24:27.382Z,26.45
2018-05-29T12:26:56.127Z,26.50
2018-05-29T12:29:22.303Z,26.11
2018-05-29T12:31:48.321Z,25.84
2018-05-29T12:34:14.284Z,25.64
2018-05-29T12:36:40.230Z,25.23
2018-05-29T12:39:06.230Z,24.68
2018-05-29T12:41:32.197Z,24.31
2018-05-29T12:43:58.259Z,24.21
2018-05-29T12:46:24.374Z,24.14
2018-05-29T12:48:50.265Z,23.72
2018-05-29T12:51:16.263Z,23.57
2018-05-29T12:53:42.249Z,23.58
2018-05-29T12:56:08.190Z,23.52
2018-05-29T12:58:34.154Z,23.62
2018-05-29T13:01:00.093Z,23.80
2018-05-29T13:03:26.122Z,23.88
2018-05-29T13:05:52.086Z,23.77
2018-05-29T13:08:18.077Z,23.43
2018-05-29T13:10:44.047Z,23.12
2018-05-29T13:13:10.061Z,23.19
2018-05-29T13:15:36.068Z,23.28
2018-05-29T13:18:01.981Z,23.43
2018-05-29T13:20:27.945Z,23.19
2018-05-29T13:22:54.003Z,23.24
2018-05-29T13:25:19.972Z,22.94
2018-05-29T13:27:45.984Z,22.45
2018-05-29T13:30:11.920Z,22.22
2018-05-29T13:32:37.945Z,22.13
2018-05-29T13:35:03.853Z,22.25
2018-05-29T13:37:29.860Z,22.50
2018-05-29T13:39:55.821Z,22.52
2018-05-29T13:42:21.820Z,22.41
2018-05-29T13:44:47.785Z,22.33
2018-05-29T13:47:13.760Z,22.30
2018-05-29T13:49:39.662Z,22.52
2018-05-29T13:52:05.692Z,22.69
2018-05-29T13:54:31.611Z,22.86
2018-05-29T13:56:57.596Z,22.80
2018-05-29T13:59:23.557Z,22.89
2018-05-29T14:01:49.479Z,23.14
2018-05-29T14:04:15.437Z,23.29
2018-05-29T14:06:41.420Z,23.46
2018-05-29T14:09:07.406Z,23.49
2018-05-29T14:11:33.345Z,23.53
2018-05-29T14:13:59.304Z,23.63
2018-05-29T14:16:25.282Z,23.65
2018-05-29T14:18:51.285Z,23.74
2018-05-29T14:21:17.249Z,23.92
2018-05-29T14:23:43.185Z,23.90
2018-05-29T14:26:09.133Z,24.05
2018-05-29T14:28:35.108Z,24.07
2018-05-29T14:31:01.076Z,24.09
2018-05-29T14:33:27.772Z,24.26
2018-05-29T14:35:53.791Z,24.67
2018-05-29T14:38:19.783Z,24.83
2018-05-29T14:40:45.774Z,24.67
2018-05-29T14:43:11.702Z,24.57
2018-05-29T14:45:37.634Z,24.68
2018-05-29T14:48:03.605Z,24.86
2018-05-29T14:50:29.571Z,24.80
2018-05-29T14:52:55.488Z,24.69
2018-05-29T14:55:21.444Z,24.55
2018-05-29T14:57:47.417Z,24.30
2018-05-29T15:00:13.348Z,24.24
2018-05-29T15:02:39.342Z,24.18
2018-05-29T15:05:05.281Z,23.88
2018-05-29T15:07:31.215Z,23.66
2018-05-29T15:09:57.164Z,23.40
2018-05-29T15:12:23.085Z,23.39
2018-05-29T15:14:50.074Z,23.35
2018-05-29T15:17:16.034Z,23.32
2018-05-29T15:19:41.986Z,23.25
2018-05-29T15:22:07.945Z,23.34
2018-05-29T15:24:33.872Z,23.41
2018-05-29T15:37:52.664Z,23.46
2018-05-29T15:40:18.706Z,23.41
2018-05-29T15:42:44.707Z,23.31
2018-05-29T15:45:10.628Z,23.30
2018-05-29T15:47:36.588Z,23.34
2018-05-29T15:50:02.588Z,23.29
2018-05-29T15:52:28.532Z,23.32
2018-05-29T15:54:54.454Z,23.25
2018-05-29T15:57:20.675Z,23.41
2018-05-29T15:59:46.601Z,23.53
2018-05-29T16:02:12.505Z,23.74
2018-05-29T16:04:38.459Z,24.05
2018-05-29T16:07:04.447Z,24.15
2018-05-29T16:09:30.379Z,24.46
2018-05-29T16:11:56.296Z,24.88
2018-05-29T16:14:22.334Z,25.04
2018-05-29T16:16:48.237Z,25.03
2018-05-29T16:19:14.204Z,25.00
2018-05-29T16:21:40.154Z,25.06
2018-05-29T16:24:06.057Z,24.85
2018-05-29T16:26:32.032Z,24.96
2018-05-29T16:28:57.919Z,25.01
2018-05-29T16:31:23.872Z,25.01
2018-05-29T16:33:49.776Z,24.98
2018-05-29T16:36:15.734Z,25.10
2018-05-29T16:38:41.718Z,25.26
2018-05-29T16:41:07.700Z,25.32
2018-05-29T16:43:33.640Z,25.48
2018-05-29T16:45:59.590Z,25.49
2018-05-29T16:48:25.538Z,25.45
2018-05-29T16:50:51.477Z,25.35
2018-05-29T16:53:17.476Z,25.37
2018-05-29T16:55:43.417Z,25.27
2018-05-29T16:58:09.381Z,25.16
2018-05-29T17:00:35.316Z,25.03
2018-05-29T17:03:01.274Z,25.13
2018-05-29T17:05:27.211Z,25.15
2018-05-29T17:07:53.220Z,25.03
2018-05-29T17:10:19.191Z,25.08
2018-05-29T17:12:45.161Z,25.07
2018-05-29T17:15:11.204Z,25.06
2018-05-29T17:17:37.121Z,25.05
2018-05-29T17:20:03.104Z,24.89
2018-05-29T17:22:29.029Z,24.52
2018-05-29T17:24:55.017Z,24.56
2018-05-29T17:27:20.988Z,24.63
2018-05-29T17:29:46.925Z,24.69
2018-05-29T17:32:12.846Z,24.72
2018-05-29T17:34:38.788Z,24.42
2018-05-29T17:37:04.799Z,24.52
2018-05-29T17:39:30.753Z,24.49
2018-05-29T17:41:56.707Z,24.45
2018-05-29T17:44:22.692Z,24.51
2018-05-29T17:46:48.668Z,24.32
2018-05-29T17:49:14.572Z,24.37
2018-05-29T17:51:40.489Z,24.21
2018-05-29T17:54:06.411Z,24.12
2018-05-29T17:56:32.386Z,23.93
2018-05-29T17:58:58.309Z,23.75
2018-05-29T18:01:24.232Z,23.80
2018-05-29T18:03:50.196Z,23.86
2018-05-29T18:06:16.164Z,23.80
2018-05-29T18:08:42.116Z,23.70
2018-05-29T18:11:08.072Z,23.74
2018-05-29T18:13:34.043Z,23.78
2018-05-29T18:15:59.949Z,23.74
2018-05-29T18:18:25.874Z,23.75
2018-05-29T18:20:51.889Z,23.73
2018-05-29T18:23:17.830Z,23.74
2018-05-29T18:25:43.768Z,23.64
2018-05-29T18:28:09.746Z,23.63
2018-05-29T18:30:35.659Z,23.53
2018-05-29T18:33:01.668Z,23.48
2018-05-29T18:35:27.645Z,23.39
2018-05-29T18:37:53.612Z,23.30
2018-05-29T18:40:19.606Z,23.18
2018-05-29T18:42:45.706Z,23.16
2018-05-29T18:45:11.656Z,23.16
2018-05-29T18:47:37.597Z,23.16
2018-05-29T18:50:03.579Z,23.00
2018-05-29T18:52:29.486Z,22.91
2018-05-29T18:54:55.462Z,22.83
2018-05-29T18:57:21.422Z,22.76
2018-05-29T18:59:52.001Z,22.65
2018-05-29T19:02:19.522Z,22.55
2018-05-29T19:04:46.279Z,22.49
2018-05-29T19:07:12.385Z,22.41
2018-05-29T19:09:38.355Z,22.37
2018-05-29T19:12:04.295Z,22.31
2018-05-29T19:14:30.242Z,22.18
2018-05-29T19:16:56.250Z,22.07
2018-05-29T19:19:22.198Z,22.02
2018-05-29T19:21:48.245Z,22.04
2018-05-29T19:24:14.195Z,21.98
2018-05-29T19:26:40.117Z,21.85
2018-05-29T19:29:06.087Z,21.83
2018-05-29T19:31:32.038Z,21.79
2018-05-29T19:33:58.018Z,21.72
2018-05-29T19:36:23.972Z,21.67
2018-05-29T19:38:50.060Z,21.60
2018-05-29T19:41:16.078Z,21.56
2018-05-29T19:43:42.021Z,21.52
2018-05-29T19:46:08.005Z,21.52
2018-05-29T19:48:33.967Z,21.62
2018-05-29T19:50:59.980Z,21.41
2018-05-29T19:53:25.953Z,21.16
2018-05-29T19:55:51.908Z,20.93
2018-05-29T19:58:17.953Z,20.98
2018-05-29T20:00:43.945Z,20.95
2018-05-29T20:03:09.936Z,20.88
2018-05-29T20:05:35.863Z,20.81
2018-05-29T20:08:01.887Z,20.64
2018-05-29T20:10:27.877Z,20.64
2018-05-29T20:12:53.866Z,20.49
2018-05-29T20:15:19.856Z,20.45
2018-05-29T20:17:45.817Z,20.50
2018-05-29T20:20:11.869Z,20.54
2018-05-29T20:22:37.835Z,20.51
2018-05-29T20:25:03.848Z,20.50
2018-05-29T20:27:29.778Z,20.48
2018-05-29T20:29:55.766Z,20.44
2018-05-29T20:32:21.698Z,20.47
2018-05-29T20:34:47.681Z,20.47
2018-05-29T20:37:13.648Z,20.38
2018-05-29T20:39:39.643Z,20.35
2018-05-29T20:42:05.576Z,20.34
2018-05-29T20:44:31.550Z,20.28
2018-05-29T20:46:57.478Z,20.33
2018-05-29T20:49:23.452Z,20.27
2018-05-29T20:51:49.412Z,20.23
2018-05-29T20:54:15.395Z,20.14
2018-05-29T20:56:41.337Z,20.04
2018-05-29T20:59:07.304Z,20.00
2018-05-29T21:01:33.342Z,19.94
2018-05-29T21:03:59.302Z,19.89
2018-05-29T21:06:25.266Z,19.82
2018-05-29T21:08:51.217Z,19.79
2018-05-29T21:11:17.170Z,19.71
2018-05-29T21:13:43.097Z,19.73
2018-05-29T21:16:09.100Z,19.78
2018-05-29T21:18:35.043Z,19.75
2018-05-29T21:21:01.353Z,19.78
2018-05-29T21:23:27.469Z,19.68
2018-05-29T21:25:53.425Z,19.64
2018-05-29T21:28:19.369Z,19.62
2018-05-29T21:30:45.418Z,19.63
2018-05-29T21:33:11.352Z,19.60
2018-05-29T21:35:37.269Z,19.62
2018-05-29T21:38:03.194Z,19.64
2018-05-29T21:40:29.152Z,19.59
2018-05-29T21:42:55.104Z,19.56
2018-05-29T21:45:21.035Z,19.51
2018-05-29T21:47:46.984Z,19.38
2018-05-29T21:50:12.975Z,19.28
2018-05-29T21:52:38.865Z,19.30
2018-05-29T21:55:04.800Z,19.30
2018-05-29T21:57:30.707Z,19.16
2018-05-29T21:59:56.703Z,19.12
2018-05-29T22:02:22.627Z,19.03
2018-05-29T22:04:48.535Z,19.04
2018-05-29T22:07:14.500Z,19.03
2018-05-29T22:09:40.458Z,18.97
2018-05-29T22:12:06.458Z,18.99
2018-05-29T22:14:32.407Z,18.96
2018-05-29T22:16:58.344Z,18.95
2018-05-29T22:19:24.320Z,18.89
2018-05-29T22:21:50.244Z,18.93
2018-05-29T22:24:16.196Z,18.79
2018-05-29T22:26:42.126Z,18.66
2018-05-29T22:29:08.101Z,18.66
2018-05-29T22:31:34.107Z,18.50
2018-05-29T22:34:00.040Z,18.50
2018-05-29T22:36:25.982Z,18.41
2018-05-29T22:38:51.964Z,18.53
2018-05-29T22:41:17.920Z,18.54
2018-05-29T22:43:44.467Z,18.48
2018-05-29T22:46:10.441Z,18.39
2018-05-29T22:48:36.344Z,18.38
2018-05-29T22:51:02.275Z,18.44
2018-05-29T22:53:28.270Z,18.53
2018-05-29T22:55:54.243Z,18.55
2018-05-29T22:58:20.199Z,18.59
2018-05-29T23:00:46.121Z,18.62
2018-05-29T23:03:12.078Z,18.54
2018-05-29T23:05:38.124Z,18.37
2018-05-29T23:08:04.025Z,18.23
2018-05-29T23:10:30.118Z,18.19
2018-05-29T23:12:56.061Z,18.12
2018-05-29T23:15:21.977Z,18.08
2018-05-29T23:17:47.918Z,18.06
2018-05-29T23:20:13.817Z,18.14
2018-05-29T23:22:39.765Z,18.20
2018-05-29T23:25:05.721Z,18.19
2018-05-29T23:27:31.656Z,18.18
2018-05-29T23:29:57.571Z,18.19
2018-05-29T23:32:23.524Z,18.12
2018-05-29T23:34:49.579Z,18.17
2018-05-29T23:37:15.546Z,18.17
2018-05-29T23:39:41.506Z,18.15
2018-05-29T23:42:07.487Z,17.99
2018-05-29T23:44:33.426Z,17.98
2018-05-29T23:46:59.387Z,17.92
2018-05-29T23:49:25.344Z,17.90
2018-05-29T23:51:51.316Z,17.94
2018-05-29T23:54:17.315Z,18.02
2018-05-29T23:56:43.266Z,18.05
2018-05-29T23:59:09.211Z,17.98
